Time;durP1;ratioP1;P1;durP2;ratioP2;P2;SDS_P1;SDS_P2;PMS_P1;PMS_P2;Temp;Humidity;BMP_temperature;BMP_pressure;BME280_temperature;BME280_humidity;BME280_pressure;Samples;Min_cycle;Max_cycle;Signal;HPM_P1;HPM_P2
2022/07/30 00:00:04;;;;;;;9.13;6.53;;;;;;;;;;5090541;28;20047;-72
2022/07/30 00:02:31;;;;;;;8.20;6.45;;;;;;;;;;5090285;28;20043;-72
2022/07/30 00:04:57;;;;;;;9.07;6.35;;;;;;;;;;5091297;28;20101;-72
2022/07/30 00:07:23;;;;;;;7.75;6.22;;;;;;;;;;5092873;28;20040;-72
2022/07/30 00:09:49;;;;;;;8.07;6.53;;;;;;;;;;5092327;28;20203;-72
2022/07/30 00:12:15;;;;;;;11.15;6.38;;;;;;;;;;5092033;28;20502;-72
2022/07/30 00:14:41;;;;;;;10.18;6.35;;;;;;;;;;5087312;28;20502;-72
2022/07/30 00:17:08;;;;;;;11.25;6.28;;;;;;;;;;5088689;28;20044;-72
2022/07/30 00:19:34;;;;;;;13.40;7.07;;;;;;;;;;5090470;28;20036;-72
2022/07/30 00:22:00;;;;;;;10.95;6.22;;;;;;;;;;5087689;28;20081;-72
2022/07/30 00:24:27;;;;;;;8.18;6.40;;;;;;;;;;5105964;28;20048;-72
2022/07/30 00:26:53;;;;;;;10.57;6.95;;;;;;;;;;5089143;28;20519;-72
2022/07/30 00:29:19;;;;;;;6.95;5.80;;;;;;;;;;5098679;28;20048;-72
2022/07/30 00:31:45;;;;;;;9.93;6.53;;;;;;;;;;5103231;28;20036;-72
2022/07/30 00:34:11;;;;;;;11.50;5.68;;;;;;;;;;5084683;28;20039;-72
2022/07/30 00:36:38;;;;;;;13.25;6.75;;;;;;;;;;5085710;28;20123;-72
2022/07/30 00:39:04;;;;;;;17.60;7.15;;;;;;;;;;5090213;28;20036;-72
2022/07/30 00:41:30;;;;;;;16.83;7.85;;;;;;;;;;5088631;28;20058;-72
2022/07/30 00:43:56;;;;;;;10.70;6.50;;;;;;;;;;5084964;28;20506;-71
2022/07/30 00:46:23;;;;;;;8.13;5.82;;;;;;;;;;5091409;28;20390;-71
2022/07/30 00:48:49;;;;;;;14.15;7.40;;;;;;;;;;5105102;28;20146;-72
2022/07/30 00:51:15;;;;;;;8.68;7.35;;;;;;;;;;5088690;28;20044;-72
2022/07/30 00:53:41;;;;;;;12.52;6.78;;;;;;;;;;5106858;28;20083;-72
2022/07/30 00:56:08;;;;;;;7.55;5.38;;;;;;;;;;5106611;28;20036;-72
2022/07/30 00:58:34;;;;;;;11.57;6.00;;;;;;;;;;5091890;28;20036;-72
2022/07/30 01:01:00;;;;;;;6.88;6.20;;;;;;;;;;5090001;28;20512;-72
2022/07/30 01:03:26;;;;;;;7.65;6.18;;;;;;;;;;5089787;28;20036;-73
2022/07/30 01:05:52;;;;;;;9.38;6.82;;;;;;;;;;5091902;28;20071;-71
2022/07/30 01:08:18;;;;;;;9.70;7.13;;;;;;;;;;5106413;28;20079;-72
2022/07/30 01:10:44;;;;;;;10.65;6.63;;;;;;;;;;5106091;28;20309;-72
2022/07/30 01:13:11;;;;;;;9.80;6.88;;;;;;;;;;5089642;28;20071;-72
2022/07/30 01:15:37;;;;;;;8.95;7.18;;;;;;;;;;5089518;28;20051;-72
2022/07/30 01:18:05;;;;;;;10.27;6.90;;;;;;;;;;5100991;28;20261;-72
2022/07/30 01:20:42;;;;;;;7.75;6.80;;;;;;;;;;5088174;28;20131;-72
2022/07/30 01:23:20;;;;;;;9.02;7.05;;;;;;;;;;5089589;28;20040;-71
2022/07/30 01:25:55;;;;;;;9.75;6.95;;;;;;;;;;5090586;28;20040;-72
2022/07/30 01:28:24;;;;;;;10.57;6.65;;;;;;;;;;5077602;28;20044;-72
2022/07/30 01:30:50;;;;;;;8.85;5.90;;;;;;;;;;5085188;28;20044;-71
2022/07/30 01:33:18;;;;;;;9.60;6.95;;;;;;;;;;5096962;28;20100;-71
2022/07/30 01:35:45;;;;;;;10.43;6.40;;;;;;;;;;5085172;28;20468;-72
2022/07/30 01:38:15;;;;;;;10.35;6.97;;;;;;;;;;5104415;28;20405;-72
2022/07/30 01:40:43;;;;;;;8.20;6.53;;;;;;;;;;5097358;28;20489;-71
2022/07/30 01:43:10;;;;;;;11.13;6.32;;;;;;;;;;5090053;28;20032;-72
2022/07/30 01:45:37;;;;;;;8.15;6.18;;;;;;;;;;5089230;28;20493;-72
2022/07/30 01:48:05;;;;;;;8.75;6.28;;;;;;;;;;5081316;28;20389;-72
2022/07/30 01:50:32;;;;;;;9.43;5.88;;;;;;;;;;5088659;28;20487;-72
2022/07/30 01:52:58;;;;;;;7.88;6.75;;;;;;;;;;5093068;28;20049;-72
2022/07/30 01:55:27;;;;;;;7.55;6.00;;;;;;;;;;5086643;28;20044;-72
2022/07/30 01:57:55;;;;;;;6.88;5.95;;;;;;;;;;5077382;28;20049;-72
2022/07/30 02:00:23;;;;;;;8.27;6.32;;;;;;;;;;5087281;28;20063;-72
2022/07/30 02:02:49;;;;;;;9.40;7.22;;;;;;;;;;5105891;28;20048;-71
2022/07/30 02:05:15;;;;;;;11.90;8.05;;;;;;;;;;5104338;28;20048;-71
2022/07/30 02:08:08;;;;;;;13.77;8.80;;;;;;;;;;5097248;28;20413;-71
2022/07/30 02:10:40;;;;;;;9.35;7.82;;;;;;;;;;5079127;28;20330;-72
2022/07/30 02:13:07;;;;;;;12.80;9.13;;;;;;;;;;5088814;28;20097;-72
2022/07/30 02:15:36;;;;;;;14.85;9.68;;;;;;;;;;5085828;28;20036;-72
2022/07/30 02:18:05;;;;;;;10.27;8.52;;;;;;;;;;5090142;28;20419;-71
2022/07/30 02:20:33;;;;;;;11.85;8.45;;;;;;;;;;5103993;28;20048;-72
2022/07/30 02:23:05;;;;;;;10.65;8.45;;;;;;;;;;5084999;28;20183;-71
2022/07/30 02:25:33;;;;;;;12.93;9.25;;;;;;;;;;5054829;28;20281;-72
2022/07/30 02:28:01;;;;;;;12.23;9.48;;;;;;;;;;5088570;28;20048;-71
2022/07/30 02:30:30;;;;;;;13.65;9.90;;;;;;;;;;5093983;28;20048;-72
2022/07/30 02:33:00;;;;;;;11.85;10.27;;;;;;;;;;5087732;28;20055;-72
2022/07/30 02:35:28;;;;;;;11.30;9.15;;;;;;;;;;5084406;28;20036;-72
2022/07/30 02:37:55;;;;;;;15.20;8.73;;;;;;;;;;5071168;28;20032;-72
2022/07/30 02:40:21;;;;;;;10.18;8.50;;;;;;;;;;5088109;28;20043;-72
2022/07/30 02:42:49;;;;;;;12.43;9.00;;;;;;;;;;5086680;28;20032;-73
2022/07/30 02:45:16;;;;;;;11.10;8.32;;;;;;;;;;5089381;28;20101;-73
2022/07/30 02:47:48;;;;;;;10.95;8.40;;;;;;;;;;5089539;28;20067;-72
2022/07/30 02:50:16;;;;;;;10.88;8.30;;;;;;;;;;5103995;28;20366;-72
2022/07/30 02:52:42;;;;;;;11.65;8.13;;;;;;;;;;5105223;28;20083;-72
2022/07/30 02:55:09;;;;;;;10.38;7.95;;;;;;;;;;5087619;28;20044;-72
2022/07/30 02:57:35;;;;;;;8.75;6.78;;;;;;;;;;5089887;28;20304;-72
2022/07/30 03:00:03;;;;;;;8.38;7.45;;;;;;;;;;5087410;28;20044;-72
2022/07/30 03:02:31;;;;;;;9.60;7.43;;;;;;;;;;5088264;28;20048;-72
2022/07/30 03:04:57;;;;;;;8.98;7.18;;;;;;;;;;5088392;28;20075;-72
2022/07/30 03:07:24;;;;;;;7.93;6.90;;;;;;;;;;5105389;28;20131;-72
2022/07/30 03:09:54;;;;;;;7.72;6.75;;;;;;;;;;5061584;28;20076;-73
2022/07/30 03:12:21;;;;;;;10.27;6.35;;;;;;;;;;5104899;28;20150;-71
2022/07/30 03:14:47;;;;;;;9.13;7.15;;;;;;;;;;5089049;28;20409;-71
2022/07/30 03:17:16;;;;;;;7.85;6.90;;;;;;;;;;5087718;28;20048;-72
2022/07/30 03:19:42;;;;;;;8.43;5.85;;;;;;;;;;5088708;28;20032;-72
2022/07/30 03:22:09;;;;;;;7.07;6.10;;;;;;;;;;5088129;28;20036;-72
2022/07/30 03:24:37;;;;;;;7.93;5.85;;;;;;;;;;5089256;28;20489;-72
2022/07/30 03:27:05;;;;;;;6.68;5.50;;;;;;;;;;5087756;28;20069;-72
2022/07/30 03:29:32;;;;;;;7.88;6.03;;;;;;;;;;5089007;28;20128;-72
2022/07/30 03:31:58;;;;;;;6.18;5.57;;;;;;;;;;5080096;28;20040;-72
2022/07/30 03:34:25;;;;;;;5.43;4.90;;;;;;;;;;5088945;28;20039;-72
2022/07/30 03:36:52;;;;;;;10.32;5.68;;;;;;;;;;5087680;28;20139;-72
2022/07/30 03:39:18;;;;;;;7.22;5.75;;;;;;;;;;5089010;28;20035;-71
2022/07/30 03:41:45;;;;;;;7.55;6.38;;;;;;;;;;5097822;28;20067;-72
2022/07/30 03:44:12;;;;;;;9.25;6.85;;;;;;;;;;5104485;28;20040;-71
2022/07/30 03:46:39;;;;;;;8.38;6.40;;;;;;;;;;5102209;28;20490;-72
2022/07/30 03:49:05;;;;;;;7.10;5.72;;;;;;;;;;5091633;28;20048;-72
2022/07/30 03:51:32;;;;;;;9.52;7.00;;;;;;;;;;5091191;28;20040;-71
2022/07/30 03:53:58;;;;;;;9.23;7.05;;;;;;;;;;5108828;28;20505;-72
2022/07/30 03:56:25;;;;;;;7.97;5.57;;;;;;;;;;5089717;28;20036;-72
2022/07/30 03:58:51;;;;;;;9.25;5.43;;;;;;;;;;5108578;28;20036;-72
2022/07/30 04:01:17;;;;;;;7.20;5.35;;;;;;;;;;5108251;28;20523;-71
2022/07/30 04:03:43;;;;;;;6.63;5.75;;;;;;;;;;5078602;28;20059;-71
2022/07/30 04:06:09;;;;;;;6.75;5.30;;;;;;;;;;5085180;28;20417;-71
2022/07/30 04:08:35;;;;;;;7.25;4.97;;;;;;;;;;5092331;28;20047;-71
2022/07/30 04:11:03;;;;;;;6.45;3.67;;;;;;;;;;5108057;28;20044;-72
2022/07/30 04:13:29;;;;;;;4.63;4.13;;;;;;;;;;5090755;28;20047;-71
2022/07/30 04:15:56;;;;;;;5.30;3.88;;;;;;;;;;5090866;28;20044;-72
2022/07/30 04:18:24;;;;;;;4.88;4.20;;;;;;;;;;5091138;28;20473;-71
2022/07/30 04:20:51;;;;;;;5.53;4.57;;;;;;;;;;5090869;28;20085;-71
2022/07/30 04:23:18;;;;;;;5.97;4.30;;;;;;;;;;5092488;28;20508;-72
2022/07/30 04:25:45;;;;;;;6.95;3.97;;;;;;;;;;5092050;28;20043;-72
2022/07/30 04:28:12;;;;;;;4.95;4.45;;;;;;;;;;5090521;28;20040;-72
2022/07/30 04:30:38;;;;;;;7.35;5.05;;;;;;;;;;5086446;28;20051;-72
2022/07/30 04:33:04;;;;;;;7.40;4.88;;;;;;;;;;5091111;28;20544;-72
2022/07/30 04:35:31;;;;;;;7.13;4.80;;;;;;;;;;5106020;28;20126;-72
2022/07/30 04:37:59;;;;;;;5.70;5.10;;;;;;;;;;5108078;28;20040;-72
2022/07/30 04:40:25;;;;;;;8.15;6.22;;;;;;;;;;5088691;28;20501;-72
2022/07/30 04:42:52;;;;;;;7.47;5.80;;;;;;;;;;5085784;28;20170;-72
2022/07/30 04:45:19;;;;;;;8.60;6.63;;;;;;;;;;5100596;28;20048;-72
2022/07/30 04:47:45;;;;;;;7.18;5.90;;;;;;;;;;5099903;28;20044;-72
2022/07/30 04:50:12;;;;;;;9.35;6.13;;;;;;;;;;5076456;28;20093;-71
2022/07/30 04:52:38;;;;;;;9.13;6.88;;;;;;;;;;5086546;28;20538;-71
2022/07/30 04:55:06;;;;;;;8.05;6.45;;;;;;;;;;5059278;28;20048;-72
2022/07/30 04:57:33;;;;;;;10.07;6.68;;;;;;;;;;5082783;28;20040;-72
2022/07/30 04:59:59;;;;;;;8.95;6.05;;;;;;;;;;5105162;27;20050;-71
2022/07/30 05:02:26;;;;;;;8.93;7.25;;;;;;;;;;5089008;28;20568;-71
2022/07/30 05:04:53;;;;;;;9.13;6.45;;;;;;;;;;5075004;28;20501;-71
2022/07/30 05:07:20;;;;;;;8.70;6.10;;;;;;;;;;5073971;28;20048;-71
2022/07/30 05:09:47;;;;;;;11.52;7.55;;;;;;;;;;5095032;28;20516;-71
2022/07/30 05:12:14;;;;;;;8.30;6.45;;;;;;;;;;5081653;28;20044;-72
2022/07/30 05:14:41;;;;;;;10.40;6.10;;;;;;;;;;5103613;28;20097;-71
2022/07/30 05:17:07;;;;;;;11.23;7.55;;;;;;;;;;5103123;28;20079;-72
2022/07/30 05:19:33;;;;;;;10.80;7.38;;;;;;;;;;5078884;28;20040;-72
2022/07/30 05:21:59;;;;;;;15.45;8.35;;;;;;;;;;5084811;28;20386;-72
2022/07/30 05:24:26;;;;;;;9.40;6.18;;;;;;;;;;5085713;28;20085;-71
2022/07/30 05:26:52;;;;;;;11.30;7.32;;;;;;;;;;5097504;28;20082;-72
2022/07/30 05:29:18;;;;;;;11.38;6.10;;;;;;;;;;5088713;28;20117;-72
2022/07/30 05:31:44;;;;;;;10.73;7.10;;;;;;;;;;5102290;28;20051;-72
2022/07/30 05:34:10;;;;;;;15.88;8.68;;;;;;;;;;5055133;28;20120;-72
2022/07/30 05:36:36;;;;;;;37.15;8.02;;;;;;;;;;5104901;28;20068;-71
2022/07/30 05:39:03;;;;;;;9.75;6.90;;;;;;;;;;5106421;28;20036;-71
2022/07/30 05:41:29;;;;;;;9.82;7.05;;;;;;;;;;5105875;28;20035;-72
2022/07/30 05:43:56;;;;;;;11.02;7.32;;;;;;;;;;5105164;28;20123;-72
2022/07/30 05:46:22;;;;;;;9.10;7.30;;;;;;;;;;5088830;28;20075;-72
2022/07/30 05:48:48;;;;;;;11.40;7.35;;;;;;;;;;5089311;28;20127;-71
2022/07/30 05:51:14;;;;;;;9.57;7.60;;;;;;;;;;5088814;28;20465;-71
2022/07/30 05:53:41;;;;;;;9.50;7.00;;;;;;;;;;5088691;28;20044;-72
2022/07/30 05:56:07;;;;;;;11.18;6.30;;;;;;;;;;5105951;28;20502;-72
2022/07/30 05:58:35;;;;;;;8.18;5.85;;;;;;;;;;5072474;28;20110;-72
2022/07/30 06:01:01;;;;;;;9.52;5.55;;;;;;;;;;5089034;28;20477;-72
2022/07/30 06:03:27;;;;;;;9.60;6.18;;;;;;;;;;5095679;28;20063;-72
2022/07/30 06:05:53;;;;;;;10.68;6.47;;;;;;;;;;5104383;28;20078;-72
2022/07/30 06:08:19;;;;;;;10.90;6.90;;;;;;;;;;5089366;28;20548;-71
2022/07/30 06:10:45;;;;;;;11.57;5.78;;;;;;;;;;5088808;28;20028;-72
2022/07/30 06:13:11;;;;;;;11.13;5.65;;;;;;;;;;5105723;28;20397;-71
2022/07/30 06:15:37;;;;;;;10.65;6.47;;;;;;;;;;5088468;28;20040;-72
2022/07/30 06:18:04;;;;;;;9.63;6.10;;;;;;;;;;5100869;28;20036;-72
2022/07/30 06:20:30;;;;;;;11.90;7.40;;;;;;;;;;5103955;28;20089;-72
2022/07/30 06:22:56;;;;;;;11.35;5.43;;;;;;;;;;5090152;28;20079;-71
2022/07/30 06:25:22;;;;;;;13.20;6.80;;;;;;;;;;5105430;28;20072;-71
2022/07/30 06:27:48;;;;;;;9.23;5.57;;;;;;;;;;5089956;28;20036;-71
2022/07/30 06:30:14;;;;;;;11.88;6.22;;;;;;;;;;5104813;28;20103;-71
2022/07/30 06:32:46;;;;;;;10.27;5.57;;;;;;;;;;5088569;28;20040;-71
2022/07/30 06:35:12;;;;;;;10.70;6.63;;;;;;;;;;5085088;28;20228;-71
2022/07/30 06:37:38;;;;;;;15.32;6.75;;;;;;;;;;5071697;28;20044;-71
2022/07/30 06:40:05;;;;;;;18.30;7.07;;;;;;;;;;5104961;28;20502;-72
2022/07/30 06:42:31;;;;;;;10.98;6.43;;;;;;;;;;5088140;28;20036;-72
2022/07/30 06:44:57;;;;;;;13.95;7.38;;;;;;;;;;5087386;28;20055;-71
2022/07/30 06:47:27;;;;;;;11.35;7.13;;;;;;;;;;5104110;28;20088;-72
2022/07/30 06:49:54;;;;;;;15.70;8.05;;;;;;;;;;5101907;28;20040;-71
2022/07/30 06:52:20;;;;;;;17.23;7.85;;;;;;;;;;5104635;28;20051;-72
2022/07/30 06:54:47;;;;;;;8.68;5.97;;;;;;;;;;5082525;28;20046;-71
2022/07/30 06:57:13;;;;;;;8.18;6.07;;;;;;;;;;5086545;28;20692;-72
2022/07/30 06:59:40;;;;;;;10.32;6.93;;;;;;;;;;5083910;28;20096;-71
2022/07/30 07:02:06;;;;;;;12.73;6.57;;;;;;;;;;5077709;28;20040;-72
2022/07/30 07:04:32;;;;;;;11.63;6.90;;;;;;;;;;5082356;28;20484;-72
2022/07/30 07:06:58;;;;;;;10.95;6.25;;;;;;;;;;5094520;28;20496;-72
2022/07/30 07:09:25;;;;;;;12.98;6.75;;;;;;;;;;5088123;28;20043;-72
2022/07/30 07:11:52;;;;;;;13.13;6.97;;;;;;;;;;5080454;28;20037;-72
2022/07/30 07:14:18;;;;;;;10.35;6.88;;;;;;;;;;5096756;28;20051;-72
2022/07/30 07:16:44;;;;;;;11.05;6.45;;;;;;;;;;5076272;28;20170;-72
2022/07/30 07:19:10;;;;;;;12.13;6.68;;;;;;;;;;5074965;28;20377;-72
2022/07/30 07:21:37;;;;;;;9.48;6.28;;;;;;;;;;5069133;28;20032;-72
2022/07/30 07:24:03;;;;;;;12.75;7.05;;;;;;;;;;5085576;28;20181;-72
2022/07/30 07:26:31;;;;;;;13.02;6.55;;;;;;;;;;5090104;28;20516;-70
2022/07/30 07:28:57;;;;;;;7.82;5.53;;;;;;;;;;5093069;28;20044;-70
2022/07/30 07:31:23;;;;;;;7.57;6.13;;;;;;;;;;5092920;28;20043;-70
2022/07/30 07:33:50;;;;;;;13.73;6.53;;;;;;;;;;5082335;28;20040;-70
2022/07/30 07:36:16;;;;;;;13.77;6.68;;;;;;;;;;5078409;28;20031;-70
2022/07/30 07:38:43;;;;;;;6.97;5.38;;;;;;;;;;5090885;28;20174;-70
2022/07/30 07:41:09;;;;;;;8.43;5.40;;;;;;;;;;5087043;28;20101;-70
2022/07/30 07:43:35;;;;;;;13.05;5.90;;;;;;;;;;5107006;28;20035;-70
2022/07/30 07:46:01;;;;;;;12.15;4.88;;;;;;;;;;5090775;28;20096;-70
2022/07/30 07:48:28;;;;;;;7.05;5.05;;;;;;;;;;5092787;28;20508;-70
2022/07/30 07:50:54;;;;;;;12.43;7.00;;;;;;;;;;5090102;28;20508;-70
2022/07/30 07:53:20;;;;;;;6.63;4.88;;;;;;;;;;5064332;28;20052;-71
2022/07/30 07:55:46;;;;;;;8.50;5.88;;;;;;;;;;5090425;28;20044;-70
2022/07/30 07:58:13;;;;;;;10.93;7.05;;;;;;;;;;5108179;28;20431;-70
2022/07/30 08:00:41;;;;;;;11.32;6.45;;;;;;;;;;5089604;28;20050;-70
2022/07/30 08:03:07;;;;;;;8.20;5.15;;;;;;;;;;5082514;28;20150;-70
2022/07/30 08:05:33;;;;;;;11.32;5.50;;;;;;;;;;5086275;28;20040;-70
2022/07/30 08:07:59;;;;;;;8.88;5.78;;;;;;;;;;5081672;28;20071;-70
2022/07/30 08:10:25;;;;;;;9.48;5.30;;;;;;;;;;5076608;28;20032;-70
2022/07/30 08:12:52;;;;;;;8.27;5.55;;;;;;;;;;5077399;28;20402;-70
2022/07/30 08:15:18;;;;;;;13.63;5.72;;;;;;;;;;5089491;28;20039;-70
2022/07/30 08:17:45;;;;;;;8.20;5.55;;;;;;;;;;5087029;28;20040;-70
2022/07/30 08:20:13;;;;;;;9.95;5.15;;;;;;;;;;5082762;28;20048;-70
2022/07/30 08:22:40;;;;;;;7.55;4.90;;;;;;;;;;5089312;28;20047;-70
2022/07/30 08:25:06;;;;;;;7.88;4.95;;;;;;;;;;5085920;28;20047;-70
2022/07/30 08:27:32;;;;;;;9.25;5.07;;;;;;;;;;5091485;28;20424;-70
2022/07/30 08:29:58;;;;;;;12.38;6.07;;;;;;;;;;5091971;28;20149;-70
2022/07/30 08:32:25;;;;;;;9.27;4.65;;;;;;;;;;5093416;28;20028;-70
2022/07/30 08:34:51;;;;;;;9.48;5.75;;;;;;;;;;5106316;28;20071;-70
2022/07/30 08:37:17;;;;;;;7.00;4.70;;;;;;;;;;5091476;28;20075;-70
2022/07/30 08:39:43;;;;;;;7.50;4.93;;;;;;;;;;5079409;28;20040;-70
2022/07/30 08:42:09;;;;;;;6.72;4.40;;;;;;;;;;5108715;28;20044;-70
2022/07/30 08:44:36;;;;;;;5.55;4.40;;;;;;;;;;5090078;28;20040;-70
2022/07/30 08:47:03;;;;;;;11.48;4.93;;;;;;;;;;5085500;28;20401;-70
2022/07/30 08:49:29;;;;;;;8.32;4.72;;;;;;;;;;5086907;28;20048;-70
2022/07/30 08:51:55;;;;;;;7.55;4.50;;;;;;;;;;5072616;28;20531;-70
2022/07/30 08:54:22;;;;;;;6.70;4.10;;;;;;;;;;5078891;28;20076;-70
2022/07/30 08:56:49;;;;;;;4.97;4.25;;;;;;;;;;5089082;28;20387;-70
2022/07/30 08:59:16;;;;;;;10.93;4.88;;;;;;;;;;5102999;28;20552;-70
2022/07/30 09:01:43;;;;;;;5.95;3.88;;;;;;;;;;5079123;28;20646;-69
2022/07/30 09:04:09;;;;;;;7.38;3.83;;;;;;;;;;5077442;28;20044;-69
2022/07/30 09:06:36;;;;;;;8.55;4.15;;;;;;;;;;5074644;28;20068;-70
2022/07/30 09:09:02;;;;;;;5.13;3.42;;;;;;;;;;5084850;28;20486;-69
2022/07/30 09:11:28;;;;;;;6.38;3.83;;;;;;;;;;5082245;28;20028;-70
2022/07/30 09:13:54;;;;;;;7.47;3.08;;;;;;;;;;5085452;28;20032;-70
2022/07/30 09:16:24;;;;;;;3.88;3.10;;;;;;;;;;5080675;28;20190;-69
2022/07/30 09:18:51;;;;;;;7.70;3.50;;;;;;;;;;5097751;28;20039;-69
2022/07/30 09:21:23;;;;;;;5.28;3.10;;;;;;;;;;5088005;28;20075;-69
2022/07/30 09:23:59;;;;;;;13.45;4.43;;;;;;;;;;5082778;28;20036;-69
2022/07/30 09:26:26;;;;;;;7.88;4.30;;;;;;;;;;5083174;28;20048;-69
2022/07/30 09:28:52;;;;;;;8.70;4.05;;;;;;;;;;5091008;28;20100;-70
2022/07/30 09:31:19;;;;;;;7.05;4.55;;;;;;;;;;5087056;28;20123;-69
2022/07/30 09:33:46;;;;;;;6.68;4.25;;;;;;;;;;5084480;28;20494;-69
2022/07/30 09:36:14;;;;;;;8.43;4.80;;;;;;;;;;5063646;28;20051;-69
2022/07/30 09:38:48;;;;;;;7.78;3.47;;;;;;;;;;5086945;28;20050;-70
2022/07/30 09:41:15;;;;;;;9.88;4.60;;;;;;;;;;5078753;28;20032;-70
2022/07/30 09:43:43;;;;;;;7.90;4.18;;;;;;;;;;5086115;28;20101;-70
2022/07/30 09:46:09;;;;;;;5.15;3.30;;;;;;;;;;5080338;28;20593;-70
2022/07/30 09:48:35;;;;;;;7.07;4.35;;;;;;;;;;5087360;28;20100;-69
2022/07/30 09:51:01;;;;;;;12.57;4.18;;;;;;;;;;5084948;28;20177;-70
2022/07/30 09:53:28;;;;;;;8.15;4.30;;;;;;;;;;5086276;28;20130;-70
2022/07/30 09:55:55;;;;;;;6.95;4.60;;;;;;;;;;5086991;28;20278;-70
2022/07/30 09:58:21;;;;;;;10.02;4.55;;;;;;;;;;5085222;28;20093;-70
2022/07/30 10:00:47;;;;;;;9.05;4.13;;;;;;;;;;5088065;28;20028;-70
2022/07/30 10:03:16;;;;;;;6.35;4.13;;;;;;;;;;5086711;28;20043;-70
2022/07/30 10:06:09;;;;;;;7.60;4.35;;;;;;;;;;5086876;28;20040;-70
2022/07/30 10:08:39;;;;;;;7.10;4.35;;;;;;;;;;5087203;28;20098;-70
2022/07/30 10:11:08;;;;;;;6.57;4.57;;;;;;;;;;5086653;28;20044;-70
2022/07/30 10:13:35;;;;;;;6.78;3.92;;;;;;;;;;5097107;28;20071;-70
2022/07/30 10:16:02;;;;;;;8.80;4.70;;;;;;;;;;5088104;28;20036;-70
2022/07/30 10:18:29;;;;;;;9.15;5.00;;;;;;;;;;5086514;28;20068;-70
2022/07/30 10:20:55;;;;;;;7.47;4.38;;;;;;;;;;5085650;28;20050;-70
2022/07/30 10:23:23;;;;;;;14.65;4.85;;;;;;;;;;5087135;28;20047;-70
2022/07/30 10:25:50;;;;;;;6.32;4.18;;;;;;;;;;5088107;28;20040;-70
2022/07/30 10:28:17;;;;;;;11.07;4.45;;;;;;;;;;5088654;28;20392;-70
2022/07/30 10:30:44;;;;;;;6.30;4.00;;;;;;;;;;5089095;28;20055;-70
2022/07/30 10:33:11;;;;;;;6.65;3.53;;;;;;;;;;5089944;28;20093;-70
2022/07/30 10:35:37;;;;;;;8.18;3.38;;;;;;;;;;5088480;28;20269;-70
2022/07/30 10:38:03;;;;;;;8.18;3.60;;;;;;;;;;5105630;28;20044;-70
2022/07/30 10:40:35;;;;;;;5.97;3.58;;;;;;;;;;5071069;28;20050;-70
2022/07/30 10:43:20;;;;;;;9.27;4.23;;;;;;;;;;5088602;28;20035;-70
2022/07/30 10:46:01;;;;;;;8.88;4.18;;;;;;;;;;5080838;28;20417;-70
2022/07/30 10:48:27;;;;;;;6.30;3.85;;;;;;;;;;5085491;28;20044;-70
2022/07/30 10:50:55;;;;;;;4.03;3.55;;;;;;;;;;5088133;28;20040;-70
2022/07/30 10:53:35;;;;;;;7.35;3.97;;;;;;;;;;5076738;28;20424;-70
2022/07/30 10:56:31;;;;;;;9.82;3.65;;;;;;;;;;5083544;28;20405;-70
2022/07/30 10:58:57;;;;;;;5.53;3.88;;;;;;;;;;5088605;28;20047;-71
2022/07/30 11:01:23;;;;;;;6.22;3.40;;;;;;;;;;5083780;28;20040;-70
2022/07/30 11:04:09;;;;;;;5.70;3.30;;;;;;;;;;5104337;28;20096;-71
2022/07/30 11:06:36;;;;;;;7.78;3.88;;;;;;;;;;5074737;28;20166;-71
2022/07/30 11:09:22;;;;;;;5.85;3.25;;;;;;;;;;5088466;28;20052;-70
2022/07/30 11:11:50;;;;;;;10.23;3.70;;;;;;;;;;5087269;28;20040;-71
2022/07/30 11:14:16;;;;;;;7.65;3.83;;;;;;;;;;5089166;28;20120;-71
2022/07/30 11:16:42;;;;;;;4.53;3.17;;;;;;;;;;5086713;28;20028;-70
2022/07/30 11:19:15;;;;;;;6.47;4.28;;;;;;;;;;5089352;28;20036;-70
2022/07/30 11:21:43;;;;;;;5.70;3.33;;;;;;;;;;5087682;28;20057;-70
2022/07/30 11:24:29;;;;;;;7.88;3.10;;;;;;;;;;5105097;28;20123;-70
2022/07/30 11:26:55;;;;;;;7.35;3.13;;;;;;;;;;5082026;28;20052;-70
2022/07/30 11:29:35;;;;;;;4.22;2.95;;;;;;;;;;5087496;28;20059;-70
2022/07/30 11:32:20;;;;;;;15.82;4.05;;;;;;;;;;5088036;28;20128;-71
2022/07/30 11:34:46;;;;;;;6.35;3.33;;;;;;;;;;5078311;28;20514;-71
2022/07/30 11:37:16;;;;;;;6.10;3.03;;;;;;;;;;5104252;28;20169;-70
2022/07/30 11:39:57;;;;;;;3.78;2.67;;;;;;;;;;5104900;28;20067;-70
2022/07/30 11:42:27;;;;;;;6.05;2.50;;;;;;;;;;5087805;28;20057;-70
2022/07/30 11:45:13;;;;;;;6.00;2.78;;;;;;;;;;5085521;28;20113;-71
2022/07/30 11:47:39;;;;;;;6.97;3.03;;;;;;;;;;5088784;28;20044;-70
2022/07/30 11:50:06;;;;;;;4.95;2.83;;;;;;;;;;5103319;28;20075;-71
2022/07/30 11:52:32;;;;;;;5.15;2.92;;;;;;;;;;5085068;28;20052;-71
2022/07/30 11:54:58;;;;;;;9.60;3.05;;;;;;;;;;5078615;28;20131;-70
2022/07/30 11:57:40;;;;;;;5.43;2.50;;;;;;;;;;5104952;28;20172;-71
2022/07/30 12:00:07;;;;;;;6.18;3.05;;;;;;;;;;5086997;28;20036;-70
2022/07/30 12:02:33;;;;;;;5.18;2.55;;;;;;;;;;5089211;28;20563;-70
2022/07/30 12:04:59;;;;;;;3.80;2.83;;;;;;;;;;5087519;28;20524;-70
2022/07/30 12:07:25;;;;;;;6.03;2.45;;;;;;;;;;5104573;28;20036;-71
2022/07/30 12:09:52;;;;;;;7.45;3.08;;;;;;;;;;5072598;28;20422;-71
2022/07/30 12:12:23;;;;;;;5.32;2.00;;;;;;;;;;5092406;28;20040;-70
2022/07/30 12:14:49;;;;;;;8.70;2.20;;;;;;;;;;5091042;28;20044;-70
2022/07/30 12:17:15;;;;;;;5.80;1.90;;;;;;;;;;5092343;28;20528;-70
2022/07/30 12:19:47;;;;;;;3.75;2.33;;;;;;;;;;5087296;28;20037;-70
2022/07/30 12:22:14;;;;;;;3.65;1.73;;;;;;;;;;5084135;28;20085;-70
2022/07/30 12:24:40;;;;;;;4.38;2.30;;;;;;;;;;5090975;28;20051;-70
2022/07/30 12:27:07;;;;;;;10.43;2.42;;;;;;;;;;5092200;28;20044;-70
2022/07/30 12:29:34;;;;;;;7.90;2.13;;;;;;;;;;5106897;28;20068;-71
2022/07/30 12:32:00;;;;;;;3.30;2.25;;;;;;;;;;5083435;28;20109;-70
2022/07/30 12:34:26;;;;;;;4.93;2.33;;;;;;;;;;5106344;28;20085;-71
2022/07/30 12:36:54;;;;;;;4.63;2.25;;;;;;;;;;5100150;28;20127;-71
2022/07/30 12:39:21;;;;;;;3.70;2.15;;;;;;;;;;5107995;28;20400;-71
2022/07/30 12:41:49;;;;;;;7.55;2.33;;;;;;;;;;5091295;28;20068;-70
2022/07/30 12:44:34;;;;;;;4.00;2.00;;;;;;;;;;5091770;28;20046;-70
2022/07/30 12:47:00;;;;;;;5.15;2.05;;;;;;;;;;5090169;28;20080;-71
2022/07/30 12:49:30;;;;;;;4.97;1.70;;;;;;;;;;5085790;28;20040;-70
2022/07/30 12:51:56;;;;;;;4.13;2.22;;;;;;;;;;5105733;28;20062;-70
2022/07/30 12:54:23;;;;;;;5.22;1.90;;;;;;;;;;5107161;28;20052;-70
2022/07/30 12:56:59;;;;;;;4.50;1.90;;;;;;;;;;5091144;28;20128;-70
2022/07/30 12:59:25;;;;;;;3.38;1.85;;;;;;;;;;5091559;28;20138;-71
2022/07/30 13:01:52;;;;;;;2.78;2.00;;;;;;;;;;5091328;28;20043;-70
2022/07/30 13:04:19;;;;;;;2.83;1.80;;;;;;;;;;5091841;28;20040;-70
2022/07/30 13:07:05;;;;;;;5.72;1.80;;;;;;;;;;5089652;28;20046;-70
2022/07/30 13:09:31;;;;;;;2.25;1.42;;;;;;;;;;5090419;28;20040;-70
2022/07/30 13:11:59;;;;;;;4.93;2.00;;;;;;;;;;5090211;28;20040;-70
2022/07/30 13:14:25;;;;;;;3.45;1.67;;;;;;;;;;5091181;28;20089;-70
2022/07/30 13:16:52;;;;;;;3.30;1.65;;;;;;;;;;5089385;28;20456;-70
2022/07/30 13:19:19;;;;;;;2.50;1.60;;;;;;;;;;5091088;28;20047;-70
2022/07/30 13:21:46;;;;;;;2.80;1.60;;;;;;;;;;5087830;28;20075;-70
2022/07/30 13:24:12;;;;;;;1.67;1.42;;;;;;;;;;5080640;28;20485;-70
2022/07/30 13:26:38;;;;;;;3.05;1.55;;;;;;;;;;5056074;28;20485;-70
2022/07/30 13:29:04;;;;;;;4.70;1.85;;;;;;;;;;5091039;28;20516;-71
2022/07/30 13:31:31;;;;;;;2.85;2.05;;;;;;;;;;5090576;28;20048;-70
2022/07/30 13:33:57;;;;;;;2.55;1.50;;;;;;;;;;5090727;28;20097;-71
2022/07/30 13:36:23;;;;;;;3.88;1.77;;;;;;;;;;5105154;28;20128;-70
2022/07/30 13:38:49;;;;;;;2.25;1.48;;;;;;;;;;5090787;28;20044;-71
2022/07/30 13:41:17;;;;;;;3.00;1.83;;;;;;;;;;5105928;28;20032;-70
2022/07/30 13:43:43;;;;;;;1.65;1.30;;;;;;;;;;5105422;28;20028;-71
2022/07/30 13:46:09;;;;;;;3.28;1.25;;;;;;;;;;5097001;28;20380;-70
2022/07/30 13:48:35;;;;;;;1.70;1.30;;;;;;;;;;5089676;28;20404;-70
2022/07/30 13:51:02;;;;;;;2.95;1.33;;;;;;;;;;5089099;28;20418;-71
2022/07/30 13:53:29;;;;;;;2.78;1.40;;;;;;;;;;5105975;28;20125;-71
2022/07/30 13:55:58;;;;;;;1.55;1.02;;;;;;;;;;5082540;28;20043;-71
2022/07/30 13:58:24;;;;;;;2.92;1.42;;;;;;;;;;5089128;28;20047;-70
2022/07/30 14:00:51;;;;;;;1.88;1.20;;;;;;;;;;5090075;28;20062;-70
2022/07/30 14:03:17;;;;;;;2.30;1.30;;;;;;;;;;5106307;27;20511;-71
2022/07/30 14:05:43;;;;;;;5.35;1.60;;;;;;;;;;5088788;28;20044;-70
2022/07/30 14:08:11;;;;;;;3.90;1.52;;;;;;;;;;5086705;28;20040;-70
2022/07/30 14:10:38;;;;;;;2.92;1.27;;;;;;;;;;5087799;28;20394;-70
2022/07/30 14:13:05;;;;;;;3.42;1.38;;;;;;;;;;5089878;28;20501;-70
2022/07/30 14:15:32;;;;;;;3.63;1.13;;;;;;;;;;5105191;28;20044;-70
2022/07/30 14:17:58;;;;;;;2.90;1.45;;;;;;;;;;5105191;28;20055;-70
2022/07/30 14:20:25;;;;;;;1.33;1.05;;;;;;;;;;5103716;28;20067;-70
2022/07/30 14:22:51;;;;;;;2.45;1.27;;;;;;;;;;5089797;28;20048;-71
2022/07/30 14:25:18;;;;;;;1.80;1.10;;;;;;;;;;5089874;28;20032;-70
2022/07/30 14:27:44;;;;;;;1.95;1.13;;;;;;;;;;5088311;28;20036;-70
2022/07/30 14:30:11;;;;;;;2.28;1.40;;;;;;;;;;5089144;28;20047;-71
2022/07/30 14:32:38;;;;;;;5.55;1.33;;;;;;;;;;5082639;28;20043;-70
2022/07/30 14:35:04;;;;;;;2.67;1.40;;;;;;;;;;5087427;28;20040;-70
2022/07/30 14:37:31;;;;;;;4.35;1.10;;;;;;;;;;5089674;28;20103;-70
2022/07/30 14:39:57;;;;;;;2.20;1.10;;;;;;;;;;5105531;28;20032;-70